Time;durP1;ratioP1;P1;durP2;ratioP2;P2;SDS_P1;SDS_P2;PMS_P1;PMS_P2;Temp;Humidity;BMP_temperature;BMP_pressure;BME280_temperature;BME280_humidity;BME280_pressure;Samples;Min_cycle;Max_cycle;Signal;HPM_P1;HPM_P2
2022/01/09 00:01:31;;;;;;;17.37;8.33;;;1.20;99.90;;;;;;5052287;28;20648;-59
2022/01/09 00:03:57;;;;;;;22.00;9.60;;;1.20;99.90;;;;;;5051964;28;20276;-60
2022/01/09 00:06:23;;;;;;;20.93;9.63;;;1.10;99.90;;;;;;5052677;28;20321;-60
2022/01/09 00:08:48;;;;;;;19.20;10.43;;;1.10;99.90;;;;;;5053446;28;20235;-60
2022/01/09 00:11:15;;;;;;;21.23;9.93;;;1.20;99.90;;;;;;5050982;28;20263;-60
2022/01/09 00:13:41;;;;;;;19.20;9.50;;;1.20;99.90;;;;;;5053518;28;20234;-65
2022/01/09 00:16:07;;;;;;;17.10;8.23;;;1.10;99.90;;;;;;5053487;28;20204;-60
2022/01/09 00:18:33;;;;;;;19.57;9.27;;;1.10;99.90;;;;;;5053792;28;20188;-60
2022/01/09 00:21:05;;;;;;;18.47;9.47;;;1.10;99.90;;;;;;5052943;28;20194;-61
2022/01/09 00:23:35;;;;;;;17.97;9.03;;;1.10;99.90;;;;;;5053422;28;20184;-60
2022/01/09 00:26:01;;;;;;;16.33;8.60;;;1.20;99.90;;;;;;5053244;28;20184;-58
2022/01/09 00:28:27;;;;;;;17.87;9.10;;;1.20;99.90;;;;;;5053511;28;20300;-61
2022/01/09 00:30:53;;;;;;;17.50;8.67;;;1.20;99.90;;;;;;5053496;28;20257;-59
2022/01/09 00:33:22;;;;;;;15.93;8.13;;;1.20;99.90;;;;;;5053361;28;20220;-59
2022/01/09 00:35:49;;;;;;;17.30;8.80;;;1.20;99.90;;;;;;5053350;28;20189;-61
2022/01/09 00:38:15;;;;;;;15.63;8.77;;;1.20;99.90;;;;;;5052911;28;20597;-60
2022/01/09 00:40:42;;;;;;;16.43;8.30;;;1.20;99.90;;;;;;5053190;28;20539;-60
2022/01/09 00:43:09;;;;;;;18.23;8.47;;;1.30;99.90;;;;;;5051650;28;20181;-62
2022/01/09 00:45:39;;;;;;;18.07;8.60;;;1.30;99.90;;;;;;5053522;28;20196;-59
2022/01/09 00:48:05;;;;;;;15.73;7.90;;;1.30;99.90;;;;;;5061606;28;20276;-60
2022/01/09 00:50:32;;;;;;;17.60;8.37;;;1.30;99.90;;;;;;5072751;28;20701;-60
2022/01/09 00:52:59;;;;;;;17.03;8.53;;;1.30;99.90;;;;;;5072740;28;20294;-61
2022/01/09 00:55:25;;;;;;;14.43;7.30;;;1.30;99.90;;;;;;5072910;28;20201;-61
2022/01/09 00:57:50;;;;;;;15.50;8.00;;;1.30;99.90;;;;;;5072732;28;20237;-61
2022/01/09 01:00:16;;;;;;;15.53;7.57;;;1.30;99.90;;;;;;5072621;28;20203;-61
2022/01/09 01:02:42;;;;;;;15.53;8.20;;;1.30;99.90;;;;;;5072901;28;20621;-59
2022/01/09 01:05:09;;;;;;;15.50;8.13;;;1.30;99.90;;;;;;5072267;28;20243;-61
2022/01/09 01:07:35;;;;;;;16.47;7.97;;;1.30;99.90;;;;;;5072442;28;20204;-60
2022/01/09 01:10:01;;;;;;;14.23;7.37;;;1.30;99.90;;;;;;5072398;28;20231;-60
2022/01/09 01:12:29;;;;;;;13.43;7.50;;;1.30;99.90;;;;;;5072490;28;20169;-60
2022/01/09 01:14:55;;;;;;;16.23;7.30;;;1.30;99.90;;;;;;5072662;28;20185;-60
2022/01/09 01:17:22;;;;;;;11.87;6.60;;;1.30;99.90;;;;;;5072334;28;20191;-59
2022/01/09 01:19:48;;;;;;;13.17;6.90;;;1.30;99.90;;;;;;5054935;28;20184;-59
2022/01/09 01:22:15;;;;;;;14.03;7.37;;;1.30;99.90;;;;;;5072208;28;20545;-62
2022/01/09 01:24:42;;;;;;;13.80;7.00;;;1.40;99.90;;;;;;5072148;28;20185;-60
2022/01/09 01:27:09;;;;;;;12.17;6.77;;;1.30;99.90;;;;;;5072194;28;20188;-60
2022/01/09 01:29:35;;;;;;;11.63;6.27;;;1.30;99.90;;;;;;5060946;28;20203;-61
2022/01/09 01:32:02;;;;;;;14.17;7.20;;;1.40;99.90;;;;;;5052210;28;20170;-61
2022/01/09 01:34:27;;;;;;;14.23;7.57;;;1.30;99.90;;;;;;5034697;28;20189;-60
2022/01/09 01:36:53;;;;;;;16.07;7.80;;;1.30;99.90;;;;;;5052367;28;20632;-59
2022/01/09 01:39:19;;;;;;;17.03;7.83;;;1.30;99.90;;;;;;5052134;28;20196;-61
2022/01/09 01:41:45;;;;;;;14.47;6.93;;;1.40;99.90;;;;;;5052220;28;20295;-60
2022/01/09 01:44:12;;;;;;;14.47;7.33;;;1.40;99.90;;;;;;5049566;28;20186;-59
2022/01/09 01:46:38;;;;;;;14.03;7.57;;;1.30;99.90;;;;;;5072231;28;20238;-59
2022/01/09 01:49:05;;;;;;;15.03;7.70;;;1.30;99.90;;;;;;5072075;28;20240;-59
2022/01/09 01:51:34;;;;;;;13.77;7.13;;;1.40;99.90;;;;;;5072135;28;20183;-60
2022/01/09 01:54:01;;;;;;;14.83;7.00;;;1.30;99.90;;;;;;5072142;28;20193;-62
2022/01/09 01:56:27;;;;;;;11.97;7.00;;;1.30;99.90;;;;;;5071981;28;20193;-59
2022/01/09 01:58:53;;;;;;;14.57;7.50;;;1.40;99.90;;;;;;5072015;28;20194;-59
2022/01/09 02:01:19;;;;;;;15.40;7.47;;;1.30;99.90;;;;;;5071883;28;20600;-59
2022/01/09 02:03:45;;;;;;;13.33;6.47;;;1.30;99.90;;;;;;5072129;28;20188;-59
2022/01/09 02:06:14;;;;;;;12.67;6.43;;;1.40;99.90;;;;;;5071804;28;20724;-61
2022/01/09 02:08:41;;;;;;;12.67;6.73;;;1.30;99.90;;;;;;5071721;28;20661;-61
2022/01/09 02:11:07;;;;;;;12.43;6.17;;;1.40;99.90;;;;;;5071801;28;20187;-60
2022/01/09 02:13:33;;;;;;;14.87;7.57;;;1.30;99.90;;;;;;5071666;28;20190;-61
2022/01/09 02:16:00;;;;;;;13.97;6.50;;;1.30;99.90;;;;;;5071975;28;20184;-59
2022/01/09 02:18:26;;;;;;;14.77;6.73;;;1.30;99.90;;;;;;5071602;28;20231;-59
2022/01/09 02:20:52;;;;;;;11.63;5.63;;;1.30;99.90;;;;;;5071885;28;20220;-60
2022/01/09 02:23:19;;;;;;;11.43;6.03;;;1.40;99.90;;;;;;5071709;28;20182;-59
2022/01/09 02:25:47;;;;;;;11.70;6.27;;;1.40;99.90;;;;;;5071899;28;20220;-59
2022/01/09 02:28:14;;;;;;;14.43;6.87;;;1.40;99.90;;;;;;5053304;28;20220;-60
2022/01/09 02:30:41;;;;;;;14.30;6.80;;;1.40;99.90;;;;;;5051829;28;20279;-60
2022/01/09 02:33:09;;;;;;;12.47;6.13;;;1.40;99.90;;;;;;5051728;28;20177;-60
2022/01/09 02:35:36;;;;;;;17.77;6.33;;;1.40;99.90;;;;;;5054086;28;20709;-60
2022/01/09 02:38:04;;;;;;;11.83;6.20;;;1.40;99.90;;;;;;5055007;28;20653;-61
2022/01/09 02:40:30;;;;;;;12.17;6.33;;;1.40;99.90;;;;;;5055749;28;20186;-60
2022/01/09 02:42:56;;;;;;;12.73;6.40;;;1.40;99.90;;;;;;5066205;28;20548;-60
2022/01/09 02:45:24;;;;;;;10.70;5.23;;;1.40;99.90;;;;;;5095450;28;20202;-60
2022/01/09 02:47:51;;;;;;;11.87;5.97;;;1.40;99.90;;;;;;5095341;28;20252;-60
2022/01/09 02:50:43;;;;;;;11.80;6.20;;;1.40;99.90;;;;;;5095455;28;20197;-61
2022/01/09 02:53:15;;;;;;;10.60;6.13;;;1.40;99.90;;;;;;5094497;28;20244;-60
2022/01/09 02:55:41;;;;;;;10.13;5.40;;;1.40;99.90;;;;;;5095603;28;20189;-59
2022/01/09 02:58:08;;;;;;;11.07;5.77;;;1.40;99.90;;;;;;5095169;28;20179;-61
2022/01/09 03:00:36;;;;;;;11.10;5.40;;;1.30;99.90;;;;;;5078948;28;20624;-62
2022/01/09 03:03:03;;;;;;;11.53;5.87;;;1.30;99.90;;;;;;5074092;28;20190;-70
2022/01/09 03:05:30;;;;;;;9.87;5.80;;;1.30;99.90;;;;;;5074000;28;20174;-62
2022/01/09 03:07:57;;;;;;;12.97;5.10;;;1.30;99.90;;;;;;5074365;28;20216;-60
2022/01/09 03:10:23;;;;;;;16.57;6.70;;;1.30;99.90;;;;;;5074731;28;20777;-62
2022/01/09 03:12:51;;;;;;;10.67;5.43;;;1.30;99.90;;;;;;5074767;28;20184;-60
2022/01/09 03:15:17;;;;;;;10.47;5.23;;;1.30;99.90;;;;;;5056761;28;20188;-60
2022/01/09 03:17:44;;;;;;;11.57;4.60;;;1.30;99.90;;;;;;5074874;28;20185;-59
2022/01/09 03:20:14;;;;;;;10.63;5.97;;;1.30;99.90;;;;;;5074632;28;20620;-59
2022/01/09 03:22:39;;;;;;;9.53;4.67;;;1.30;99.90;;;;;;5074921;28;20608;-59
2022/01/09 03:25:06;;;;;;;12.70;5.27;;;1.30;99.90;;;;;;5074546;28;20182;-60
2022/01/09 03:27:32;;;;;;;9.67;5.33;;;1.30;99.90;;;;;;5074349;28;20663;-59
2022/01/09 03:29:59;;;;;;;10.37;5.30;;;1.30;99.90;;;;;;5074957;28;20188;-59
2022/01/09 03:32:25;;;;;;;12.97;5.07;;;1.20;99.90;;;;;;5074261;28;20192;-59
2022/01/09 03:34:50;;;;;;;9.50;4.50;;;1.20;99.90;;;;;;5056531;28;20188;-59
2022/01/09 03:37:16;;;;;;;10.33;5.10;;;1.20;99.90;;;;;;5074274;28;20210;-59
2022/01/09 03:39:42;;;;;;;11.30;4.90;;;1.20;99.90;;;;;;5074164;28;20610;-59
2022/01/09 03:42:08;;;;;;;10.43;5.40;;;1.20;99.90;;;;;;5056215;28;20177;-60
2022/01/09 03:44:33;;;;;;;18.50;5.40;;;1.20;99.90;;;;;;5093407;28;20181;-59
2022/01/09 03:46:59;;;;;;;10.90;4.97;;;1.20;99.90;;;;;;5094315;28;20191;-59
2022/01/09 03:49:25;;;;;;;12.80;4.77;;;1.20;99.90;;;;;;5092341;28;20258;-60
2022/01/09 03:51:52;;;;;;;11.80;5.00;;;1.20;99.90;;;;;;5094065;28;20242;-60
2022/01/09 03:54:21;;;;;;;13.00;4.70;;;1.20;99.90;;;;;;5094282;28;20173;-59
2022/01/09 03:56:48;;;;;;;9.90;5.10;;;1.30;99.90;;;;;;5094585;28;20182;-60
2022/01/09 03:59:14;;;;;;;13.17;5.27;;;1.30;99.90;;;;;;5075604;28;20555;-64
2022/01/09 04:01:40;;;;;;;13.80;5.43;;;1.20;99.90;;;;;;5094208;28;20185;-60
2022/01/09 04:04:06;;;;;;;13.00;5.47;;;1.20;99.90;;;;;;5093831;28;20259;-68
2022/01/09 04:06:32;;;;;;;17.00;5.23;;;1.20;99.90;;;;;;5093653;28;20181;-60
2022/01/09 04:09:06;;;;;;;25.10;6.10;;;1.20;99.90;;;;;;5093503;28;20224;-60
2022/01/09 04:11:37;;;;;;;15.17;5.53;;;1.20;99.90;;;;;;5093570;28;20178;-59
2022/01/09 04:14:03;;;;;;;17.10;6.30;;;1.20;99.90;;;;;;5093613;28;20180;-58
2022/01/09 04:16:28;;;;;;;25.03;7.17;;;1.30;99.90;;;;;;5093452;28;20279;-59
2022/01/09 04:18:54;;;;;;;16.37;6.53;;;1.20;99.90;;;;;;5093699;28;20612;-58
2022/01/09 04:21:20;;;;;;;15.30;6.10;;;1.20;99.90;;;;;;5093339;28;20191;-61
2022/01/09 04:23:46;;;;;;;14.93;5.77;;;1.20;99.90;;;;;;5093657;28;20646;-59
2022/01/09 04:26:12;;;;;;;19.60;5.87;;;1.20;99.90;;;;;;5093564;28;20229;-59
2022/01/09 04:28:38;;;;;;;24.10;6.30;;;1.30;99.90;;;;;;5089313;28;20204;-59
2022/01/09 04:31:03;;;;;;;22.03;5.60;;;1.20;99.90;;;;;;5073353;28;20192;-59
2022/01/09 04:33:29;;;;;;;14.53;5.77;;;1.20;99.90;;;;;;5072943;28;20192;-59
2022/01/09 04:35:55;;;;;;;13.57;6.77;;;1.20;99.90;;;;;;5073521;28;20615;-59
2022/01/09 04:38:21;;;;;;;17.93;6.50;;;1.20;99.90;;;;;;5073028;28;20271;-60
2022/01/09 04:40:47;;;;;;;19.00;7.17;;;1.20;99.90;;;;;;5073055;28;20253;-59
2022/01/09 04:43:14;;;;;;;13.83;6.13;;;1.20;99.90;;;;;;5080515;28;20670;-59
2022/01/09 04:45:40;;;;;;;16.40;7.10;;;1.20;99.90;;;;;;5093169;28;20190;-59
2022/01/09 04:48:08;;;;;;;14.60;7.20;;;1.20;99.90;;;;;;5092807;28;20248;-59
2022/01/09 04:50:36;;;;;;;17.40;6.33;;;1.20;99.90;;;;;;5093411;28;20261;-60
2022/01/09 04:53:06;;;;;;;12.77;6.43;;;1.20;99.90;;;;;;5075301;28;20202;-60
2022/01/09 04:55:34;;;;;;;21.57;6.40;;;1.30;99.90;;;;;;5092954;28;20176;-63
2022/01/09 04:58:01;;;;;;;16.70;6.50;;;1.30;99.90;;;;;;5092600;28;20214;-59
2022/01/09 05:00:27;;;;;;;27.23;8.03;;;1.30;99.90;;;;;;5092648;28;20180;-60
2022/01/09 05:02:52;;;;;;;16.23;6.77;;;1.30;99.90;;;;;;5093077;28;20182;-60
2022/01/09 05:05:18;;;;;;;17.97;7.23;;;1.30;99.90;;;;;;5092911;28;20183;-60
2022/01/09 05:07:44;;;;;;;13.80;6.67;;;1.30;99.90;;;;;;5092827;28;20219;-60
2022/01/09 05:10:11;;;;;;;23.90;6.60;;;1.30;99.90;;;;;;5092630;28;20187;-60
2022/01/09 05:12:37;;;;;;;16.47;6.33;;;1.30;99.90;;;;;;5092778;28;20182;-62
2022/01/09 05:15:05;;;;;;;19.83;6.93;;;1.30;99.90;;;;;;5092755;28;20238;-59
2022/01/09 05:17:30;;;;;;;18.03;7.67;;;1.30;99.90;;;;;;5092288;28;20699;-59
2022/01/09 05:19:57;;;;;;;19.50;6.80;;;1.30;99.90;;;;;;5092749;28;20260;-60
2022/01/09 05:22:30;;;;;;;14.10;7.40;;;1.40;99.90;;;;;;5092320;28;20173;-60
2022/01/09 05:25:02;;;;;;;27.03;8.20;;;1.40;99.90;;;;;;5092297;28;20173;-60
2022/01/09 05:27:28;;;;;;;225.43;30.43;;;1.40;99.90;;;;;;5092249;28;20168;-59
2022/01/09 05:29:54;;;;;;;72.20;16.30;;;1.40;99.90;;;;;;5077887;28;20196;-60
2022/01/09 05:32:20;;;;;;;20.07;9.03;;;1.70;99.90;;;;;;5053663;28;20189;-60
2022/01/09 05:34:46;;;;;;;20.83;7.87;;;1.80;99.90;;;;;;5072223;28;20185;-60
2022/01/09 05:37:12;;;;;;;17.57;7.67;;;1.80;99.90;;;;;;5071758;28;20188;-61
2022/01/09 05:39:37;;;;;;;20.53;8.83;;;1.70;99.90;;;;;;5072494;28;20315;-59
2022/01/09 05:42:06;;;;;;;18.47;8.23;;;1.70;99.90;;;;;;5072295;28;20190;-62
2022/01/09 05:44:32;;;;;;;17.53;7.67;;;1.70;99.90;;;;;;5090697;28;20186;-60
2022/01/09 05:46:59;;;;;;;16.57;7.80;;;1.60;99.90;;;;;;5091813;28;20275;-60
2022/01/09 05:49:25;;;;;;;19.03;8.50;;;1.60;99.90;;;;;;5091666;28;20320;-60
2022/01/09 05:51:51;;;;;;;18.70;8.00;;;1.60;99.90;;;;;;5092265;28;20211;-59
2022/01/09 05:54:17;;;;;;;23.53;8.30;;;1.60;99.90;;;;;;5092127;28;20173;-59
2022/01/09 05:56:42;;;;;;;21.80;8.67;;;1.60;99.90;;;;;;5092513;28;20177;-59
2022/01/09 05:59:08;;;;;;;19.17;8.63;;;1.60;99.90;;;;;;5092423;28;20598;-59
2022/01/09 06:01:35;;;;;;;20.13;8.80;;;1.60;99.90;;;;;;5091832;28;20194;-61
2022/01/09 06:04:01;;;;;;;20.93;8.40;;;1.50;99.90;;;;;;5057825;28;20188;-60
2022/01/09 06:06:27;;;;;;;20.70;9.17;;;1.50;99.90;;;;;;5092042;28;20519;-60
2022/01/09 06:08:53;;;;;;;20.97;9.50;;;1.50;99.90;;;;;;5092239;28;20212;-60
2022/01/09 06:11:19;;;;;;;18.93;8.13;;;1.50;99.90;;;;;;5096203;28;20665;-60
2022/01/09 06:13:44;;;;;;;15.57;7.93;;;1.50;99.90;;;;;;5096204;28;20181;-61
2022/01/09 06:16:10;;;;;;;18.23;8.50;;;1.50;99.90;;;;;;5096195;28;20183;-59
2022/01/09 06:18:36;;;;;;;20.43;9.20;;;1.50;99.90;;;;;;5096146;28;20226;-61
2022/01/09 06:21:02;;;;;;;17.27;8.70;;;1.50;99.90;;;;;;5095912;28;20226;-60
2022/01/09 06:23:27;;;;;;;22.00;9.53;;;1.60;99.90;;;;;;5095415;28;20521;-60
2022/01/09 06:25:53;;;;;;;19.13;8.70;;;1.60;99.90;;;;;;5095858;28;20181;-60
2022/01/09 06:28:19;;;;;;;20.03;8.57;;;1.50;99.90;;;;;;5094233;28;20212;-60
2022/01/09 06:30:46;;;;;;;18.90;10.00;;;1.50;99.90;;;;;;5075823;28;20215;-62
2022/01/09 06:33:12;;;;;;;16.10;8.43;;;1.60;99.90;;;;;;5075345;28;20259;-58
2022/01/09 06:35:39;;;;;;;21.20;10.27;;;1.60;99.90;;;;;;5075023;28;20174;-59
2022/01/09 06:38:06;;;;;;;25.80;11.27;;;1.70;99.90;;;;;;5075368;28;20193;-60
2022/01/09 06:40:33;;;;;;;28.70;11.67;;;1.70;99.90;;;;;;5075072;28;20177;-60
2022/01/09 06:42:59;;;;;;;23.20;10.33;;;1.70;99.90;;;;;;5080712;28;20238;-60
2022/01/09 06:45:27;;;;;;;29.03;11.73;;;1.60;99.90;;;;;;5094752;28;20592;-60
2022/01/09 06:47:54;;;;;;;27.20;10.97;;;1.60;99.90;;;;;;5094542;28;20248;-62
2022/01/09 06:50:20;;;;;;;28.20;11.97;;;1.60;99.90;;;;;;5094683;28;20617;-61
2022/01/09 06:52:46;;;;;;;29.00;12.70;;;1.60;99.90;;;;;;5095221;28;20543;-61
2022/01/09 06:55:12;;;;;;;23.30;11.87;;;1.60;99.90;;;;;;5094793;28;20192;-59
2022/01/09 06:57:39;;;;;;;27.27;11.13;;;1.60;99.90;;;;;;5094726;28;20516;-59
2022/01/09 07:00:07;;;;;;;26.60;12.87;;;1.60;99.90;;;;;;5094904;28;20181;-59
2022/01/09 07:02:32;;;;;;;24.73;11.20;;;1.60;99.90;;;;;;5095001;28;20172;-60
2022/01/09 07:04:58;;;;;;;25.93;10.63;;;1.60;99.90;;;;;;5095275;28;20184;-59
2022/01/09 07:07:24;;;;;;;22.07;10.33;;;1.60;99.90;;;;;;5094879;28;20310;-59
2022/01/09 07:09:49;;;;;;;22.53;11.07;;;1.60;99.90;;;;;;5095008;28;20209;-60
2022/01/09 07:12:15;;;;;;;26.80;12.07;;;1.70;99.90;;;;;;5095143;28;20181;-60
2022/01/09 07:14:41;;;;;;;22.60;11.03;;;1.70;99.90;;;;;;5094750;28;20177;-60
2022/01/09 07:17:07;;;;;;;22.83;10.43;;;1.70;99.90;;;;;;5095893;28;20199;-59
2022/01/09 07:19:33;;;;;;;27.73;11.47;;;1.70;99.90;;;;;;5094463;28;20514;-60
2022/01/09 07:21:59;;;;;;;23.80;10.70;;;1.70;99.90;;;;;;5094276;28;20195;-60
2022/01/09 07:24:25;;;;;;;22.53;10.50;;;1.70;99.90;;;;;;5094397;28;20185;-59
2022/01/09 07:26:51;;;;;;;26.73;11.53;;;1.70;99.90;;;;;;5094624;28;20173;-59
2022/01/09 07:29:16;;;;;;;22.33;11.00;;;1.80;99.90;;;;;;5085261;28;20213;-61
2022/01/09 07:31:42;;;;;;;27.93;14.27;;;1.90;99.90;;;;;;5074367;28;20227;-63
2022/01/09 07:34:08;;;;;;;24.50;11.70;;;1.90;99.90;;;;;;5073955;28;20196;-59
2022/01/09 07:36:34;;;;;;;26.67;11.60;;;1.90;99.90;;;;;;5074142;28;20212;-60
2022/01/09 07:38:59;;;;;;;25.83;12.53;;;1.90;99.90;;;;;;5074335;28;20224;-60
2022/01/09 07:41:25;;;;;;;23.73;11.50;;;1.90;99.90;;;;;;5056124;28;20211;-60
2022/01/09 07:43:51;;;;;;;24.33;12.03;;;1.90;99.90;;;;;;5086830;28;20217;-60
2022/01/09 07:46:17;;;;;;;26.00;12.20;;;1.90;99.90;;;;;;5093904;28;20232;-60
2022/01/09 07:48:42;;;;;;;25.63;11.20;;;1.90;99.90;;;;;;5093216;28;20331;-59
2022/01/09 07:51:09;;;;;;;29.70;13.00;;;2.00;99.90;;;;;;5080143;28;20188;-62
2022/01/09 07:53:35;;;;;;;27.33;12.97;;;2.00;99.90;;;;;;5054712;28;20208;-63
2022/01/09 07:56:00;;;;;;;27.37;12.13;;;2.00;99.90;;;;;;5072245;28;20185;-59
2022/01/09 07:58:26;;;;;;;29.13;13.47;;;1.90;99.90;;;;;;5072304;28;20196;-60
2022/01/09 08:00:53;;;;;;;54.03;14.97;;;1.90;99.90;;;;;;5054820;28;20193;-60
2022/01/09 08:03:19;;;;;;;27.37;12.90;;;1.90;99.90;;;;;;5071811;28;20642;-62
2022/01/09 08:05:45;;;;;;;30.87;14.37;;;1.90;99.90;;;;;;5072186;28;20195;-61
2022/01/09 08:08:10;;;;;;;28.53;13.37;;;2.00;99.90;;;;;;5072318;28;20305;-63
2022/01/09 08:10:36;;;;;;;30.33;13.30;;;2.00;99.90;;;;;;5072250;28;20185;-61
2022/01/09 08:13:02;;;;;;;35.70;16.07;;;2.00;99.90;;;;;;5072792;28;20264;-63
2022/01/09 08:15:28;;;;;;;33.13;13.20;;;2.00;99.90;;;;;;5071812;28;20621;-63
2022/01/09 08:17:54;;;;;;;30.70;13.70;;;2.00;99.90;;;;;;5072156;28;20546;-63
2022/01/09 08:20:20;;;;;;;31.53;14.50;;;2.00;99.90;;;;;;5070271;28;20189;-64
2022/01/09 08:22:47;;;;;;;35.97;15.60;;;2.10;99.90;;;;;;5071922;28;20554;-64
2022/01/09 08:25:14;;;;;;;33.60;15.53;;;2.10;99.90;;;;;;5072117;28;20189;-62
2022/01/09 08:27:42;;;;;;;41.30;15.93;;;2.10;99.90;;;;;;5071298;28;20247;-61
2022/01/09 08:30:08;;;;;;;31.47;13.80;;;2.20;99.90;;;;;;5071397;28;20657;-62
2022/01/09 08:32:34;;;;;;;37.57;15.13;;;2.20;99.90;;;;;;5070581;28;20185;-60
2022/01/09 08:35:01;;;;;;;45.07;17.07;;;2.20;99.90;;;;;;5071509;28;20556;-60
2022/01/09 08:37:27;;;;;;;39.50;15.63;;;2.20;99.90;;;;;;5071336;28;20190;-63
2022/01/09 08:39:53;;;;;;;34.70;15.47;;;2.20;99.90;;;;;;5071600;28;20284;-64
2022/01/09 08:42:18;;;;;;;38.20;15.80;;;2.20;99.90;;;;;;5071401;28;20235;-69
2022/01/09 08:44:44;;;;;;;34.80;15.73;;;2.10;99.90;;;;;;5071733;28;20189;-63
2022/01/09 08:47:10;;;;;;;37.87;16.17;;;2.10;99.90;;;;;;5071654;28;20229;-63
2022/01/09 08:49:37;;;;;;;35.13;15.03;;;2.10;99.90;;;;;;5071304;28;20237;-60
2022/01/09 08:52:03;;;;;;;37.73;16.13;;;2.20;99.90;;;;;;5070067;28;20554;-63
2022/01/09 08:54:30;;;;;;;37.33;17.33;;;2.30;99.90;;;;;;5070750;28;20564;-59
2022/01/09 08:56:56;;;;;;;38.53;16.27;;;2.30;99.90;;;;;;5071426;28;20327;-62
2022/01/09 08:59:22;;;;;;;41.43;17.77;;;2.30;99.90;;;;;;5071100;28;20189;-60
2022/01/09 09:01:49;;;;;;;37.20;16.57;;;2.30;99.90;;;;;;5070644;28;20250;-59
2022/01/09 09:04:15;;;;;;;39.37;17.47;;;2.30;99.90;;;;;;5070764;28;20648;-62
2022/01/09 09:06:41;;;;;;;36.00;17.00;;;2.30;99.90;;;;;;5070604;28;20204;-59
2022/01/09 09:09:07;;;;;;;39.53;16.57;;;2.50;99.90;;;;;;5071429;28;20221;-63
2022/01/09 09:11:33;;;;;;;36.90;17.53;;;2.50;99.90;;;;;;5070594;28;20181;-63
2022/01/09 09:13:59;;;;;;;36.10;17.90;;;2.50;99.90;;;;;;5053049;28;20193;-62
2022/01/09 09:16:25;;;;;;;39.13;18.97;;;2.40;99.90;;;;;;5069980;28;20193;-64
2022/01/09 09:18:52;;;;;;;43.33;21.37;;;2.40;99.90;;;;;;5071200;28;20717;-63
2022/01/09 09:21:19;;;;;;;43.90;20.90;;;2.50;99.90;;;;;;5070202;28;20197;-62
2022/01/09 09:23:45;;;;;;;48.00;22.63;;;2.60;99.90;;;;;;5070592;28;20189;-63
2022/01/09 09:26:11;;;;;;;39.83;20.67;;;2.60;99.90;;;;;;5069838;28;20185;-61
2022/01/09 09:28:37;;;;;;;45.30;21.50;;;2.50;99.90;;;;;;5069997;28;20205;-64
2022/01/09 09:31:03;;;;;;;45.97;22.77;;;2.50;99.90;;;;;;5067041;28;20221;-62
2022/01/09 09:33:29;;;;;;;47.73;21.87;;;2.40;99.90;;;;;;5067407;28;20189;-64
2022/01/09 09:35:58;;;;;;;41.43;21.27;;;2.40;99.90;;;;;;5068587;28;20711;-61
2022/01/09 09:38:24;;;;;;;51.47;25.47;;;2.40;99.90;;;;;;5050957;28;20193;-61
2022/01/09 09:40:50;;;;;;;47.57;22.73;;;2.50;99.90;;;;;;5069647;28;20198;-62
2022/01/09 09:43:17;;;;;;;49.63;24.80;;;2.50;99.90;;;;;;5068064;28;20190;-62
2022/01/09 09:45:43;;;;;;;48.97;23.90;;;2.60;99.90;;;;;;5067095;28;20259;-64
2022/01/09 09:48:09;;;;;;;49.73;24.10;;;2.60;99.90;;;;;;5068370;28;20260;-64
2022/01/09 09:50:35;;;;;;;46.67;23.13;;;2.70;99.90;;;;;;5069881;28;20247;-62
2022/01/09 09:53:02;;;;;;;48.60;23.10;;;2.80;99.90;;;;;;5069512;28;20185;-63
2022/01/09 09:55:28;;;;;;;48.00;24.13;;;2.80;99.90;;;;;;5070192;28;20200;-63
2022/01/09 09:57:53;;;;;;;44.70;22.63;;;2.70;99.90;;;;;;5070596;28;20688;-64
2022/01/09 10:00:21;;;;;;;43.40;22.07;;;2.70;99.90;;;;;;5070624;28;20215;-66
2022/01/09 10:02:53;;;;;;;44.30;21.87;;;2.80;99.90;;;;;;5069546;28;20231;-64
2022/01/09 10:05:21;;;;;;;40.47;19.47;;;2.80;99.90;;;;;;5069654;28;20565;-68
2022/01/09 10:07:47;;;;;;;44.47;22.07;;;2.90;99.90;;;;;;5069634;28;20801;-64
2022/01/09 10:10:16;;;;;;;39.20;19.97;;;3.10;99.90;;;;;;5070269;28;20601;-68
2022/01/09 10:12:45;;;;;;;37.93;19.97;;;3.20;99.90;;;;;;5069056;28;20183;-67
2022/01/09 10:15:13;;;;;;;40.63;21.27;;;3.20;99.90;;;;;;5069692;28;20644;-68
2022/01/09 10:17:45;;;;;;;38.87;20.03;;;3.30;99.90;;;;;;5068305;28;20663;-68
2022/01/09 10:20:25;;;;;;;42.47;20.70;;;3.10;99.90;;;;;;5068718;28;20197;-67
2022/01/09 10:22:53;;;;;;;43.63;21.73;;;3.20;99.90;;;;;;5068590;28;20478;-68
2022/01/09 10:25:20;;;;;;;42.17;22.17;;;3.20;99.90;;;;;;5069855;28;20229;-68
2022/01/09 10:27:48;;;;;;;40.47;21.17;;;3.20;99.90;;;;;;5066277;28;20510;-69
2022/01/09 10:30:14;;;;;;;41.83;21.30;;;3.30;99.90;;;;;;5070191;28;20635;-74
2022/01/09 10:32:40;;;;;;;41.20;20.93;;;3.50;99.90;;;;;;5070103;28;20719;-68
2022/01/09 10:35:16;;;;;;;42.90;21.33;;;3.60;99.90;;;;;;5070223;28;20183;-67
2022/01/09 10:37:47;;;;;;;40.13;21.00;;;3.60;99.90;;;;;;5069981;28;20634;-68
2022/01/09 10:40:29;;;;;;;31.97;17.83;;;3.70;99.90;;;;;;5069641;28;20532;-67
2022/01/09 10:43:07;;;;;;;33.70;17.03;;;3.80;99.90;;;;;;5069911;28;20231;-68
2022/01/09 10:45:36;;;;;;;28.77;14.57;;;3.80;99.90;;;;;;5070008;28;20635;-67
2022/01/09 10:48:12;;;;;;;32.13;16.57;;;3.90;99.90;;;;;;5069435;28;20242;-68
2022/01/09 10:50:41;;;;;;;33.37;15.93;;;4.10;99.90;;;;;;5069222;28;20260;-67
2022/01/09 10:53:21;;;;;;;33.23;17.40;;;4.40;99.90;;;;;;5051203;28;20185;-68
2022/01/09 10:56:09;;;;;;;30.10;15.90;;;4.70;99.90;;;;;;5070397;28;20188;-69
2022/01/09 10:58:43;;;;;;;34.30;18.20;;;4.90;99.90;;;;;;5072133;28;20693;-69
2022/01/09 11:01:09;;;;;;;28.80;16.00;;;4.90;99.90;;;;;;5073929;28;20180;-70
2022/01/09 11:03:35;;;;;;;33.93;16.87;;;4.70;99.90;;;;;;5072725;28;20224;-69
2022/01/09 11:06:02;;;;;;;40.13;19.60;;;4.70;99.90;;;;;;5073095;28;20189;-67
2022/01/09 11:08:31;;;;;;;31.13;16.50;;;4.40;99.90;;;;;;5072848;28;20221;-69
2022/01/09 11:11:02;;;;;;;28.73;15.40;;;4.30;99.90;;;;;;5073168;28;20192;-67
2022/01/09 11:13:28;;;;;;;31.73;16.20;;;4.20;99.90;;;;;;5073249;28;20580;-69
2022/01/09 11:18:42;;;;;;;36.13;16.07;;;4.50;99.90;;;;;;5073996;28;20227;-67
2022/01/09 11:21:08;;;;;;;32.97;15.77;;;4.60;99.90;;;;;;5074054;28;20176;-69
2022/01/09 11:24:00;;;;;;;35.77;15.77;;;4.50;99.90;;;;;;5073288;28;20524;-68
2022/01/09 11:26:58;;;;;;;31.47;16.63;;;4.40;99.90;;;;;;5028143;28;20602;-69
2022/01/09 11:29:54;;;;;;;33.83;18.20;;;4.50;99.90;;;;;;5072761;28;20217;-67
2022/01/09 11:32:22;;;;;;;35.33;18.23;;;4.40;99.90;;;;;;5073857;28;20594;-68
2022/01/09 11:34:56;;;;;;;31.27;17.97;;;4.50;99.90;;;;;;5073999;28;20645;-68
2022/01/09 11:37:49;;;;;;;30.00;17.63;;;4.50;99.90;;;;;;5073223;28;20482;-67
2022/01/09 11:40:25;;;;;;;32.33;19.00;;;4.40;99.90;;;;;;5073900;28;20170;-67
2022/01/09 11:43:03;;;;;;;32.23;17.13;;;4.20;99.90;;;;;;5078599;28;20666;-68
2022/01/09 11:45:42;;;;;;;35.13;18.60;;;4.20;99.90;;;;;;5093851;28;20562;-68
2022/01/09 11:48:07;;;;;;;33.77;18.80;;;4.20;99.90;;;;;;5093678;28;20334;-68
2022/01/09 11:50:34;;;;;;;43.03;21.07;;;4.20;99.90;;;;;;5093734;28;20302;-67
2022/01/09 11:53:01;;;;;;;36.47;17.33;;;4.40;99.90;;;;;;5093666;28;20185;-67
2022/01/09 11:55:43;;;;;;;33.63;18.57;;;4.50;99.90;;;;;;5093402;28;20566;-68
2022/01/09 11:58:11;;;;;;;34.63;19.30;;;4.60;99.90;;;;;;5093962;28;20651;-69
2022/01/09 12:00:42;;;;;;;37.43;18.00;;;4.70;99.90;;;;;;5093587;28;20172;-69
2022/01/09 12:03:25;;;;;;;32.17;17.93;;;4.70;99.90;;;;;;5093818;28;20227;-68
2022/01/09 12:06:14;;;;;;;35.37;18.57;;;4.70;99.90;;;;;;5093922;28;20180;-69
2022/01/09 12:08:57;;;;;;;37.77;20.07;;;4.60;99.90;;;;;;5093102;28;20742;-68
2022/01/09 12:12:01;;;;;;;30.47;16.23;;;4.40;99.90;;;;;;5093490;28;20176;-68
2022/01/09 12:14:42;;;;;;;29.67;14.93;;;4.40;99.90;;;;;;5092784;28;20188;-68
2022/01/09 12:17:26;;;;;;;24.77;13.10;;;4.40;99.90;;;;;;5093805;28;20262;-67
2022/01/09 12:20:09;;;;;;;26.70;14.37;;;4.40;99.90;;;;;;5093447;28;20210;-68
2022/01/09 12:22:45;;;;;;;28.13;14.50;;;4.40;99.90;;;;;;5093243;28;20207;-67
2022/01/09 12:27:57;;;;;;;26.93;14.40;;;4.40;99.90;;;;;;5093439;28;20186;-68
2022/01/09 12:30:41;;;;;;;31.57;13.70;;;4.30;99.90;;;;;;5074213;28;20179;-68
2022/01/09 12:33:22;;;;;;;34.10;16.40;;;4.30;99.90;;;;;;5073156;28;20164;-69
2022/01/09 12:36:10;;;;;;;33.05;19.15;;;4.20;99.90;;;;;;5071944;28;20400;-70
2022/01/09 12:38:58;;;;;;;33.93;16.37;;;4.40;99.90;;;;;;5071994;28;20569;-68
2022/01/09 12:41:30;;;;;;;33.73;17.07;;;4.50;99.90;;;;;;5072328;28;20169;-70
2022/01/09 12:44:00;;;;;;;31.70;16.33;;;4.70;99.90;;;;;;5086811;28;20184;-71
2022/01/09 12:46:28;;;;;;;31.67;15.53;;;4.70;99.90;;;;;;5093369;28;20158;-68
2022/01/09 12:48:55;;;;;;;34.60;17.37;;;4.80;99.90;;;;;;5092673;28;20262;-69
2022/01/09 12:51:22;;;;;;;32.87;16.80;;;4.70;99.90;;;;;;5092604;28;20520;-65
2022/01/09 12:53:53;;;;;;;36.87;18.17;;;4.60;99.90;;;;;;5092697;28;20543;-67